sensor_id;sensor_type;location;lat;lon;timestamp;temperature;humidity
16174;DHT22;14031;50.158;8.626;2023-04-08T00:00:06;10.20;99.90
16174;DHT22;14031;50.158;8.626;2023-04-08T00:02:33;10.20;99.90
16174;DHT22;14031;50.158;8.626;2023-04-08T00:05:00;10.20;99.90
16174;DHT22;14031;50.158;8.626;2023-04-08T00:07:26;10.10;99.90
16174;DHT22;14031;50.158;8.626;2023-04-08T00:09:53;10.10;99.90
16174;DHT22;14031;50.158;8.626;2023-04-08T00:12:21;10.00;99.90
16174;DHT22;14031;50.158;8.626;2023-04-08T00:14:49;10.00;99.90
16174;DHT22;14031;50.158;8.626;2023-04-08T00:17:17;9.90;99.90
16174;DHT22;14031;50.158;8.626;2023-04-08T00:19:45;9.90;99.90
16174;DHT22;14031;50.158;8.626;2023-04-08T00:22:11;9.90;99.90
16174;DHT22;14031;50.158;8.626;2023-04-08T00:24:38;9.80;99.90
16174;DHT22;14031;50.158;8.626;2023-04-08T00:27:06;9.80;99.90
16174;DHT22;14031;50.158;8.626;2023-04-08T00:29:32;9.80;99.90
16174;DHT22;14031;50.158;8.626;2023-04-08T00:31:59;9.80;99.90
16174;DHT22;14031;50.158;8.626;2023-04-08T00:34:27;9.70;99.90
16174;DHT22;14031;50.158;8.626;2023-04-08T00:36:54;9.70;99.90
16174;DHT22;14031;50.158;8.626;2023-04-08T00:39:22;9.70;99.90
16174;DHT22;14031;50.158;8.626;2023-04-08T00:41:49;9.60;99.90
16174;DHT22;14031;50.158;8.626;2023-04-08T00:44:15;9.60;99.90
16174;DHT22;14031;50.158;8.626;2023-04-08T00:46:42;9.60;99.90
16174;DHT22;14031;50.158;8.626;2023-04-08T00:49:09;9.50;99.90
16174;DHT22;14031;50.158;8.626;2023-04-08T00:51:38;9.40;99.90
16174;DHT22;14031;50.158;8.626;2023-04-08T00:54:06;9.30;99.90
16174;DHT22;14031;50.158;8.626;2023-04-08T00:56:33;9.40;99.90
16174;DHT22;14031;50.158;8.626;2023-04-08T00:59:01;9.30;99.90
16174;DHT22;14031;50.158;8.626;2023-04-08T01:01:33;9.30;99.90
16174;DHT22;14031;50.158;8.626;2023-04-08T01:04:08;9.20;99.90
16174;DHT22;14031;50.158;8.626;2023-04-08T01:06:48;9.20;99.90
16174;DHT22;14031;50.158;8.626;2023-04-08T01:09:18;9.20;99.90
16174;DHT22;14031;50.158;8.626;2023-04-08T01:11:49;9.10;99.90
16174;DHT22;14031;50.158;8.626;2023-04-08T01:14:22;9.10;99.90
16174;DHT22;14031;50.158;8.626;2023-04-08T01:16:49;9.00;99.90
16174;DHT22;14031;50.158;8.626;2023-04-08T01:19:19;9.00;99.90
16174;DHT22;14031;50.158;8.626;2023-04-08T01:21:51;8.90;99.90
16174;DHT22;14031;50.158;8.626;2023-04-08T01:24:22;8.90;99.90
16174;DHT22;14031;50.158;8.626;2023-04-08T01:26:53;8.80;99.90
16174;DHT22;14031;50.158;8.626;2023-04-08T01:29:22;8.80;99.90
16174;DHT22;14031;50.158;8.626;2023-04-08T01:31:51;8.70;99.90
16174;DHT22;14031;50.158;8.626;2023-04-08T01:34:18;8.80;99.90
16174;DHT22;14031;50.158;8.626;2023-04-08T01:36:47;8.70;99.90
16174;DHT22;14031;50.158;8.626;2023-04-08T01:39:14;8.70;99.90
16174;DHT22;14031;50.158;8.626;2023-04-08T01:41:42;8.60;99.90
16174;DHT22;14031;50.158;8.626;2023-04-08T01:44:13;8.60;99.90
16174;DHT22;14031;50.158;8.626;2023-04-08T01:46:41;8.60;99.90
16174;DHT22;14031;50.158;8.626;2023-04-08T01:49:09;8.60;99.90
16174;DHT22;14031;50.158;8.626;2023-04-08T01:51:38;8.60;99.90
16174;DHT22;14031;50.158;8.626;2023-04-08T01:54:05;8.60;99.90
16174;DHT22;14031;50.158;8.626;2023-04-08T01:56:37;8.50;99.90
16174;DHT22;14031;50.158;8.626;2023-04-08T01:59:06;8.60;99.90
16174;DHT22;14031;50.158;8.626;2023-04-08T02:01:36;8.50;99.90
16174;DHT22;14031;50.158;8.626;2023-04-08T02:04:04;8.50;99.90
16174;DHT22;14031;50.158;8.626;2023-04-08T02:06:31;8.50;99.90
16174;DHT22;14031;50.158;8.626;2023-04-08T02:08:59;8.30;99.90
16174;DHT22;14031;50.158;8.626;2023-04-08T02:11:26;8.40;99.90
16174;DHT22;14031;50.158;8.626;2023-04-08T02:13:55;8.40;99.90
16174;DHT22;14031;50.158;8.626;2023-04-08T02:16:26;8.30;99.90
16174;DHT22;14031;50.158;8.626;2023-04-08T02:18:59;8.30;99.90
16174;DHT22;14031;50.158;8.626;2023-04-08T02:21:37;8.30;99.90
16174;DHT22;14031;50.158;8.626;2023-04-08T02:24:07;8.30;99.90
16174;DHT22;14031;50.158;8.626;2023-04-08T02:26:36;8.30;99.90
16174;DHT22;14031;50.158;8.626;2023-04-08T02:29:04;8.30;99.90
16174;DHT22;14031;50.158;8.626;2023-04-08T02:31:32;8.20;99.90
16174;DHT22;14031;50.158;8.626;2023-04-08T02:34:01;8.30;99.90
16174;DHT22;14031;50.158;8.626;2023-04-08T02:36:31;8.20;99.90
16174;DHT22;14031;50.158;8.626;2023-04-08T02:38:58;8.10;99.90
16174;DHT22;14031;50.158;8.626;2023-04-08T02:41:27;8.10;99.90
16174;DHT22;14031;50.158;8.626;2023-04-08T02:43:54;8.10;99.90
16174;DHT22;14031;50.158;8.626;2023-04-08T02:46:21;8.00;99.90
16174;DHT22;14031;50.158;8.626;2023-04-08T02:48:48;8.10;99.90
16174;DHT22;14031;50.158;8.626;2023-04-08T02:51:18;8.00;99.90
16174;DHT22;14031;50.158;8.626;2023-04-08T02:53:44;8.00;99.90
16174;DHT22;14031;50.158;8.626;2023-04-08T02:56:11;8.00;99.90
16174;DHT22;14031;50.158;8.626;2023-04-08T02:58:38;7.90;99.90
16174;DHT22;14031;50.158;8.626;2023-04-08T03:01:07;7.90;99.90
16174;DHT22;14031;50.158;8.626;2023-04-08T03:03:35;7.80;99.90
16174;DHT22;14031;50.158;8.626;2023-04-08T03:06:03;7.80;99.90
16174;DHT22;14031;50.158;8.626;2023-04-08T03:08:31;7.70;99.90
16174;DHT22;14031;50.158;8.626;2023-04-08T03:10:58;7.80;99.90
16174;DHT22;14031;50.158;8.626;2023-04-08T03:13:25;7.90;99.90
16174;DHT22;14031;50.158;8.626;2023-04-08T03:15:51;7.80;99.90
16174;DHT22;14031;50.158;8.626;2023-04-08T03:18:18;7.70;99.90
16174;DHT22;14031;50.158;8.626;2023-04-08T03:20:45;7.70;99.90
16174;DHT22;14031;50.158;8.626;2023-04-08T03:23:12;7.70;99.90
16174;DHT22;14031;50.158;8.626;2023-04-08T03:25:40;7.70;99.90
16174;DHT22;14031;50.158;8.626;2023-04-08T03:28:07;7.80;99.90
16174;DHT22;14031;50.158;8.626;2023-04-08T03:30:34;7.60;99.90
16174;DHT22;14031;50.158;8.626;2023-04-08T03:33:01;7.70;99.90
16174;DHT22;14031;50.158;8.626;2023-04-08T03:35:29;7.50;99.90
16174;DHT22;14031;50.158;8.626;2023-04-08T03:37:57;7.60;99.90
16174;DHT22;14031;50.158;8.626;2023-04-08T03:40:25;7.50;99.90
16174;DHT22;14031;50.158;8.626;2023-04-08T03:42:53;7.40;99.90
16174;DHT22;14031;50.158;8.626;2023-04-08T03:45:20;7.30;99.90
16174;DHT22;14031;50.158;8.626;2023-04-08T03:47:46;7.40;99.90
16174;DHT22;14031;50.158;8.626;2023-04-08T03:50:13;7.50;99.90
16174;DHT22;14031;50.158;8.626;2023-04-08T03:52:40;7.40;99.90
16174;DHT22;14031;50.158;8.626;2023-04-08T03:55:08;7.40;99.90
16174;DHT22;14031;50.158;8.626;2023-04-08T03:57:34;7.40;99.90
16174;DHT22;14031;50.158;8.626;2023-04-08T04:00:04;7.40;99.90
16174;DHT22;14031;50.158;8.626;2023-04-08T04:02:31;7.30;99.90
16174;DHT22;14031;50.158;8.626;2023-04-08T04:04:58;7.30;99.90
16174;DHT22;14031;50.158;8.626;2023-04-08T04:07:24;7.10;99.90
16174;DHT22;14031;50.158;8.626;2023-04-08T04:09:51;7.20;99.90
16174;DHT22;14031;50.158;8.626;2023-04-08T04:12:21;7.10;99.90
16174;DHT22;14031;50.158;8.626;2023-04-08T04:14:48;7.30;99.90
16174;DHT22;14031;50.158;8.626;2023-04-08T04:17:16;7.20;99.90
16174;DHT22;14031;50.158;8.626;2023-04-08T04:19:43;7.20;99.90
16174;DHT22;14031;50.158;8.626;2023-04-08T04:22:09;7.20;99.90
16174;DHT22;14031;50.158;8.626;2023-04-08T04:24:36;7.20;99.90
16174;DHT22;14031;50.158;8.626;2023-04-08T04:27:03;7.10;99.90
16174;DHT22;14031;50.158;8.626;2023-04-08T04:29:30;7.20;99.90
16174;DHT22;14031;50.158;8.626;2023-04-08T04:31:57;7.10;99.90
16174;DHT22;14031;50.158;8.626;2023-04-08T04:34:25;7.10;99.90
16174;DHT22;14031;50.158;8.626;2023-04-08T04:36:52;7.10;99.90
16174;DHT22;14031;50.158;8.626;2023-04-08T04:39:18;7.10;99.90
16174;DHT22;14031;50.158;8.626;2023-04-08T04:41:45;7.00;99.90
16174;DHT22;14031;50.158;8.626;2023-04-08T04:44:13;7.10;99.90
16174;DHT22;14031;50.158;8.626;2023-04-08T04:46:40;6.90;99.90
16174;DHT22;14031;50.158;8.626;2023-04-08T04:49:07;6.90;99.90
16174;DHT22;14031;50.158;8.626;2023-04-08T04:51:35;6.90;99.90
16174;DHT22;14031;50.158;8.626;2023-04-08T04:54:02;6.90;99.90
16174;DHT22;14031;50.158;8.626;2023-04-08T04:56:29;6.80;99.90
16174;DHT22;14031;50.158;8.626;2023-04-08T04:58:55;6.80;99.90
16174;DHT22;14031;50.158;8.626;2023-04-08T05:01:22;6.80;99.90
16174;DHT22;14031;50.158;8.626;2023-04-08T05:03:49;6.90;99.90
16174;DHT22;14031;50.158;8.626;2023-04-08T05:06:16;6.80;99.90
16174;DHT22;14031;50.158;8.626;2023-04-08T05:08:44;6.90;99.90
16174;DHT22;14031;50.158;8.626;2023-04-08T05:11:11;6.70;99.90
16174;DHT22;14031;50.158;8.626;2023-04-08T05:13:37;6.70;99.90
16174;DHT22;14031;50.158;8.626;2023-04-08T05:16:05;6.90;99.90
16174;DHT22;14031;50.158;8.626;2023-04-08T05:18:32;6.80;99.90
16174;DHT22;14031;50.158;8.626;2023-04-08T05:20:59;6.80;99.90
16174;DHT22;14031;50.158;8.626;2023-04-08T05:23:25;6.80;99.90
16174;DHT22;14031;50.158;8.626;2023-04-08T05:25:54;6.90;99.90
16174;DHT22;14031;50.158;8.626;2023-04-08T05:28:21;6.80;99.90
16174;DHT22;14031;50.158;8.626;2023-04-08T05:30:48;6.70;99.90
16174;DHT22;14031;50.158;8.626;2023-04-08T05:33:15;6.70;99.90
16174;DHT22;14031;50.158;8.626;2023-04-08T05:35:42;6.70;99.90
16174;DHT22;14031;50.158;8.626;2023-04-08T05:38:09;6.80;99.90
16174;DHT22;14031;50.158;8.626;2023-04-08T05:40:36;6.80;99.90
16174;DHT22;14031;50.158;8.626;2023-04-08T05:43:04;6.70;99.90
16174;DHT22;14031;50.158;8.626;2023-04-08T05:45:31;6.60;99.90
16174;DHT22;14031;50.158;8.626;2023-04-08T05:47:57;6.80;99.90
16174;DHT22;14031;50.158;8.626;2023-04-08T05:50:24;6.90;99.90
16174;DHT22;14031;50.158;8.626;2023-04-08T05:52:51;6.80;99.90
16174;DHT22;14031;50.158;8.626;2023-04-08T05:55:18;6.80;99.90
16174;DHT22;14031;50.158;8.626;2023-04-08T05:57:45;6.90;99.90
16174;DHT22;14031;50.158;8.626;2023-04-08T06:00:13;7.00;99.90
16174;DHT22;14031;50.158;8.626;2023-04-08T06:02:41;7.10;99.90
16174;DHT22;14031;50.158;8.626;2023-04-08T06:05:08;7.10;99.90
16174;DHT22;14031;50.158;8.626;2023-04-08T06:07:35;7.20;99.90
16174;DHT22;14031;50.158;8.626;2023-04-08T06:10:02;7.30;99.90
16174;DHT22;14031;50.158;8.626;2023-04-08T06:12:29;7.40;99.90
16174;DHT22;14031;50.158;8.626;2023-04-08T06:14:58;7.50;99.90
16174;DHT22;14031;50.158;8.626;2023-04-08T06:17:26;7.50;99.90
16174;DHT22;14031;50.158;8.626;2023-04-08T06:19:53;7.50;99.90
16174;DHT22;14031;50.158;8.626;2023-04-08T06:22:19;7.60;99.90
16174;DHT22;14031;50.158;8.626;2023-04-08T06:24:46;7.60;99.90
16174;DHT22;14031;50.158;8.626;2023-04-08T06:27:13;7.70;99.90
16174;DHT22;14031;50.158;8.626;2023-04-08T06:29:40;7.80;99.90
16174;DHT22;14031;50.158;8.626;2023-04-08T06:32:07;7.90;99.90
16174;DHT22;14031;50.158;8.626;2023-04-08T06:34:35;7.90;99.90
16174;DHT22;14031;50.158;8.626;2023-04-08T06:37:02;7.90;99.90
16174;DHT22;14031;50.158;8.626;2023-04-08T06:39:29;8.00;99.90
16174;DHT22;14031;50.158;8.626;2023-04-08T06:41:56;8.10;99.90
16174;DHT22;14031;50.158;8.626;2023-04-08T06:44:23;8.20;99.90
16174;DHT22;14031;50.158;8.626;2023-04-08T06:46:50;8.20;99.90
16174;DHT22;14031;50.158;8.626;2023-04-08T06:49:17;8.20;99.90
16174;DHT22;14031;50.158;8.626;2023-04-08T06:51:45;8.20;99.90
16174;DHT22;14031;50.158;8.626;2023-04-08T06:54:12;8.20;99.90
16174;DHT22;14031;50.158;8.626;2023-04-08T06:56:39;8.40;99.90
16174;DHT22;14031;50.158;8.626;2023-04-08T06:59:06;8.40;99.90
16174;DHT22;14031;50.158;8.626;2023-04-08T07:01:33;8.50;99.90
16174;DHT22;14031;50.158;8.626;2023-04-08T07:03:59;8.60;99.90
16174;DHT22;14031;50.158;8.626;2023-04-08T07:06:27;8.60;99.90
16174;DHT22;14031;50.158;8.626;2023-04-08T07:08:55;8.70;99.90
16174;DHT22;14031;50.158;8.626;2023-04-08T07:11:22;8.80;99.90
16174;DHT22;14031;50.158;8.626;2023-04-08T07:13:49;8.90;99.90
16174;DHT22;14031;50.158;8.626;2023-04-08T07:16:16;8.90;99.90
16174;DHT22;14031;50.158;8.626;2023-04-08T07:18:43;9.00;99.90
16174;DHT22;14031;50.158;8.626;2023-04-08T07:21:11;9.10;99.90
16174;DHT22;14031;50.158;8.626;2023-04-08T07:23:37;9.20;99.90
16174;DHT22;14031;50.158;8.626;2023-04-08T07:26:07;9.20;99.90
16174;DHT22;14031;50.158;8.626;2023-04-08T07:28:34;9.30;99.90
16174;DHT22;14031;50.158;8.626;2023-04-08T07:31:11;9.40;99.90
16174;DHT22;14031;50.158;8.626;2023-04-08T07:33:38;9.60;99.90
16174;DHT22;14031;50.158;8.626;2023-04-08T07:36:05;9.70;99.90
16174;DHT22;14031;50.158;8.626;2023-04-08T07:38:32;9.70;99.90
16174;DHT22;14031;50.158;8.626;2023-04-08T07:40:59;9.70;99.90
16174;DHT22;14031;50.158;8.626;2023-04-08T07:43:27;9.80;99.90
16174;DHT22;14031;50.158;8.626;2023-04-08T07:45:59;9.90;99.90
16174;DHT22;14031;50.158;8.626;2023-04-08T07:48:27;10.00;99.90
16174;DHT22;14031;50.158;8.626;2023-04-08T07:50:53;10.00;99.90
16174;DHT22;14031;50.158;8.626;2023-04-08T07:53:20;10.10;99.90
16174;DHT22;14031;50.158;8.626;2023-04-08T07:55:48;10.10;99.90
16174;DHT22;14031;50.158;8.626;2023-04-08T07:58:14;10.10;99.90
16174;DHT22;14031;50.158;8.626;2023-04-08T08:00:43;10.10;99.90
16174;DHT22;14031;50.158;8.626;2023-04-08T08:03:09;10.10;99.90
16174;DHT22;14031;50.158;8.626;2023-04-08T08:05:36;10.10;99.90
16174;DHT22;14031;50.158;8.626;2023-04-08T08:08:03;10.10;99.90
16174;DHT22;14031;50.158;8.626;2023-04-08T08:10:32;10.10;99.90
16174;DHT22;14031;50.158;8.626;2023-04-08T08:12:58;10.10;99.90
16174;DHT22;14031;50.158;8.626;2023-04-08T08:15:25;10.00;99.90
16174;DHT22;14031;50.158;8.626;2023-04-08T08:17:53;10.20;99.90
16174;DHT22;14031;50.158;8.626;2023-04-08T08:20:20;10.20;99.90
16174;DHT22;14031;50.158;8.626;2023-04-08T08:22:47;10.20;99.90
16174;DHT22;14031;50.158;8.626;2023-04-08T08:25:14;10.20;99.90
16174;DHT22;14031;50.158;8.626;2023-04-08T08:27:41;10.20;99.90
16174;DHT22;14031;50.158;8.626;2023-04-08T08:30:08;10.20;99.90
16174;DHT22;14031;50.158;8.626;2023-04-08T08:32:35;10.20;99.90
16174;DHT22;14031;50.158;8.626;2023-04-08T08:35:04;10.20;99.90
16174;DHT22;14031;50.158;8.626;2023-04-08T08:37:30;10.20;99.90
16174;DHT22;14031;50.158;8.626;2023-04-08T08:39:57;10.20;99.90
16174;DHT22;14031;50.158;8.626;2023-04-08T08:42:25;10.20;99.90
16174;DHT22;14031;50.158;8.626;2023-04-08T08:44:51;10.20;99.90
16174;DHT22;14031;50.158;8.626;2023-04-08T08:47:20;10.30;99.90
16174;DHT22;14031;50.158;8.626;2023-04-08T08:49:47;10.20;99.90
16174;DHT22;14031;50.158;8.626;2023-04-08T08:52:16;10.10;99.90
16174;DHT22;14031;50.158;8.626;2023-04-08T08:54:43;10.10;99.90
16174;DHT22;14031;50.158;8.626;2023-04-08T08:57:16;10.20;99.90
16174;DHT22;14031;50.158;8.626;2023-04-08T08:59:45;10.20;99.90
16174;DHT22;14031;50.158;8.626;2023-04-08T09:02:23;10.20;99.90
16174;DHT22;14031;50.158;8.626;2023-04-08T09:04:59;10.20;99.90
16174;DHT22;14031;50.158;8.626;2023-04-08T09:07:28;10.40;99.90
16174;DHT22;14031;50.158;8.626;2023-04-08T09:09:56;10.40;99.90
16174;DHT22;14031;50.158;8.626;2023-04-08T09:12:25;10.60;99.90
16174;DHT22;14031;50.158;8.626;2023-04-08T09:15:03;10.50;99.90
16174;DHT22;14031;50.158;8.626;2023-04-08T09:17:31;10.50;99.90
16174;DHT22;14031;50.158;8.626;2023-04-08T09:20:06;10.40;99.90
16174;DHT22;14031;50.158;8.626;2023-04-08T09:22:54;10.50;99.90
16174;DHT22;14031;50.158;8.626;2023-04-08T09:25:22;10.50;99.90
16174;DHT22;14031;50.158;8.626;2023-04-08T09:27:49;10.60;99.90
16174;DHT22;14031;50.158;8.626;2023-04-08T09:30:17;10.60;99.90
16174;DHT22;14031;50.158;8.626;2023-04-08T09:32:48;10.60;99.90
16174;DHT22;14031;50.158;8.626;2023-04-08T09:35:16;10.70;99.90
16174;DHT22;14031;50.158;8.626;2023-04-08T09:37:44;10.80;99.90
16174;DHT22;14031;50.158;8.626;2023-04-08T09:40:12;10.80;99.90
16174;DHT22;14031;50.158;8.626;2023-04-08T09:42:45;10.90;99.90
16174;DHT22;14031;50.158;8.626;2023-04-08T09:45:14;11.00;99.90
16174;DHT22;14031;50.158;8.626;2023-04-08T09:47:59;11.10;99.90
16174;DHT22;14031;50.158;8.626;2023-04-08T09:50:31;11.20;99.90
16174;DHT22;14031;50.158;8.626;2023-04-08T09:53:00;11.40;99.90
16174;DHT22;14031;50.158;8.626;2023-04-08T09:55:30;11.40;99.90
16174;DHT22;14031;50.158;8.626;2023-04-08T09:58:02;11.50;99.90
16174;DHT22;14031;50.158;8.626;2023-04-08T10:00:39;11.60;99.90
16174;DHT22;14031;50.158;8.626;2023-04-08T10:03:13;11.70;99.90
16174;DHT22;14031;50.158;8.626;2023-04-08T10:05:43;11.60;99.90
16174;DHT22;14031;50.158;8.626;2023-04-08T10:08:10;11.60;99.90
16174;DHT22;14031;50.158;8.626;2023-04-08T10:10:38;11.60;99.90
16174;DHT22;14031;50.158;8.626;2023-04-08T10:13:06;11.70;99.90
16174;DHT22;14031;50.158;8.626;2023-04-08T10:15:34;11.90;99.90
16174;DHT22;14031;50.158;8.626;2023-04-08T10:18:40;11.90;99.90
16174;DHT22;14031;50.158;8.626;2023-04-08T10:21:30;12.10;99.90
16174;DHT22;14031;50.158;8.626;2023-04-08T10:23:58;12.30;99.90
16174;DHT22;14031;50.158;8.626;2023-04-08T10:26:38;12.50;99.90
16174;DHT22;14031;50.158;8.626;2023-04-08T10:32:26;12.90;99.90
16174;DHT22;14031;50.158;8.626;2023-04-08T10:34:55;13.10;99.90
16174;DHT22;14031;50.158;8.626;2023-04-08T10:37:22;13.30;99.90
16174;DHT22;14031;50.158;8.626;2023-04-08T10:39:49;13.50;99.90
16174;DHT22;14031;50.158;8.626;2023-04-08T10:42:17;13.50;99.90
16174;DHT22;14031;50.158;8.626;2023-04-08T10:44:44;13.40;99.90
16174;DHT22;14031;50.158;8.626;2023-04-08T10:47:11;13.40;99.90
16174;DHT22;14031;50.158;8.626;2023-04-08T10:49:38;13.40;99.90
16174;DHT22;14031;50.158;8.626;2023-04-08T10:52:08;13.40;99.90
16174;DHT22;14031;50.158;8.626;2023-04-08T10:54:35;13.30;99.90
16174;DHT22;14031;50.158;8.626;2023-04-08T10:57:04;13.30;99.90
16174;DHT22;14031;50.158;8.626;2023-04-08T10:59:31;13.30;99.90
16174;DHT22;14031;50.158;8.626;2023-04-08T11:01:58;13.50;99.90
16174;DHT22;14031;50.158;8.626;2023-04-08T11:04:26;13.50;99.90
16174;DHT22;14031;50.158;8.626;2023-04-08T11:06:53;13.60;99.90
16174;DHT22;14031;50.158;8.626;2023-04-08T11:09:21;13.60;99.90
16174;DHT22;14031;50.158;8.626;2023-04-08T11:11:48;13.70;99.90
16174;DHT22;14031;50.158;8.626;2023-04-08T11:14:16;13.80;99.90
16174;DHT22;14031;50.158;8.626;2023-04-08T11:16:46;13.90;99.90
16174;DHT22;14031;50.158;8.626;2023-04-08T11:19:13;14.00;99.90
16174;DHT22;14031;50.158;8.626;2023-04-08T11:21:40;14.20;99.90
16174;DHT22;14031;50.158;8.626;2023-04-08T11:24:10;14.20;99.90
16174;DHT22;14031;50.158;8.626;2023-04-08T11:26:39;14.40;99.90
16174;DHT22;14031;50.158;8.626;2023-04-08T11:29:10;14.40;99.90
16174;DHT22;14031;50.158;8.626;2023-04-08T11:31:39;14.50;99.90
16174;DHT22;14031;50.158;8.626;2023-04-08T11:34:07;14.60;99.90
16174;DHT22;14031;50.158;8.626;2023-04-08T11:36:34;14.60;99.90
16174;DHT22;14031;50.158;8.626;2023-04-08T11:39:06;14.60;99.90
16174;DHT22;14031;50.158;8.626;2023-04-08T11:41:36;14.80;99.90
16174;DHT22;14031;50.158;8.626;2023-04-08T11:44:06;14.70;99.90
16174;DHT22;14031;50.158;8.626;2023-04-08T11:46:33;14.70;99.90
16174;DHT22;14031;50.158;8.626;2023-04-08T11:49:03;14.60;99.90
16174;DHT22;14031;50.158;8.626;2023-04-08T11:51:31;14.60;99.90
16174;DHT22;14031;50.158;8.626;2023-04-08T11:53:59;14.60;99.90
16174;DHT22;14031;50.158;8.626;2023-04-08T11:56:26;14.50;99.90
16174;DHT22;14031;50.158;8.626;2023-04-08T11:58:55;14.50;99.90
16174;DHT22;14031;50.158;8.626;2023-04-08T12:01:23;14.40;99.90
16174;DHT22;14031;50.158;8.626;2023-04-08T12:03:57;14.20;99.90
16174;DHT22;14031;50.158;8.626;2023-04-08T12:06:25;14.50;99.90
16174;DHT22;14031;50.158;8.626;2023-04-08T12:08:53;14.50;99.90
16174;DHT22;14031;50.158;8.626;2023-04-08T12:11:20;14.60;99.90
16174;DHT22;14031;50.158;8.626;2023-04-08T12:13:47;14.80;99.90
16174;DHT22;14031;50.158;8.626;2023-04-08T12:16:15;15.00;99.90
16174;DHT22;14031;50.158;8.626;2023-04-08T12:18:43;15.10;99.90
16174;DHT22;14031;50.158;8.626;2023-04-08T12:21:11;15.30;99.90
16174;DHT22;14031;50.158;8.626;2023-04-08T12:23:38;15.50;99.90
16174;DHT22;14031;50.158;8.626;2023-04-08T12:26:05;15.60;99.90
16174;DHT22;14031;50.158;8.626;2023-04-08T12:28:31;15.50;99.90
16174;DHT22;14031;50.158;8.626;2023-04-08T12:30:59;15.40;99.90
16174;DHT22;14031;50.158;8.626;2023-04-08T12:33:26;15.50;99.90
16174;DHT22;14031;50.158;8.626;2023-04-08T12:35:54;15.70;99.90
16174;DHT22;14031;50.158;8.626;2023-04-08T12:38:22;15.60;99.90
16174;DHT22;14031;50.158;8.626;2023-04-08T12:40:49;15.90;99.90
16174;DHT22;14031;50.158;8.626;2023-04-08T12:43:16;15.80;99.90
16174;DHT22;14031;50.158;8.626;2023-04-08T12:45:43;15.90;99.90
16174;DHT22;14031;50.158;8.626;2023-04-08T12:48:09;15.90;99.90
16174;DHT22;14031;50.158;8.626;2023-04-08T12:50:36;15.90;99.90
16174;DHT22;14031;50.158;8.626;2023-04-08T12:53:04;15.80;99.90
16174;DHT22;14031;50.158;8.626;2023-04-08T12:55:31;15.50;99.90
16174;DHT22;14031;50.158;8.626;2023-04-08T12:57:58;15.50;99.90
16174;DHT22;14031;50.158;8.626;2023-04-08T13:00:25;15.40;99.90
16174;DHT22;14031;50.158;8.626;2023-04-08T13:02:52;15.50;99.90
16174;DHT22;14031;50.158;8.626;2023-04-08T13:05:18;15.60;99.90
16174;DHT22;14031;50.158;8.626;2023-04-08T13:07:45;15.60;99.90
16174;DHT22;14031;50.158;8.626;2023-04-08T13:10:14;15.50;99.90
16174;DHT22;14031;50.158;8.626;2023-04-08T13:12:40;15.50;99.90
16174;DHT22;14031;50.158;8.626;2023-04-08T13:15:08;15.40;99.90
16174;DHT22;14031;50.158;8.626;2023-04-08T13:17:35;15.40;99.90
16174;DHT22;14031;50.158;8.626;2023-04-08T13:20:03;15.30;99.90
16174;DHT22;14031;50.158;8.626;2023-04-08T13:22:29;15.30;99.90
16174;DHT22;14031;50.158;8.626;2023-04-08T13:24:58;15.30;99.90
16174;DHT22;14031;50.158;8.626;2023-04-08T13:27:27;15.40;99.90
16174;DHT22;14031;50.158;8.626;2023-04-08T13:29:54;15.40;99.90
16174;DHT22;14031;50.158;8.626;2023-04-08T13:32:20;15.40;99.90
16174;DHT22;14031;50.158;8.626;2023-04-08T13:34:47;15.40;99.90
16174;DHT22;14031;50.158;8.626;2023-04-08T13:37:14;15.30;99.90
16174;DHT22;14031;50.158;8.626;2023-04-08T13:39:41;15.20;99.90
16174;DHT22;14031;50.158;8.626;2023-04-08T13:42:07;15.20;99.90
16174;DHT22;14031;50.158;8.626;2023-04-08T13:44:36;15.20;99.90
16174;DHT22;14031;50.158;8.626;2023-04-08T13:47:02;15.20;99.90
16174;DHT22;14031;50.158;8.626;2023-04-08T13:49:29;15.10;99.90
16174;DHT22;14031;50.158;8.626;2023-04-08T13:51:56;15.10;99.90
16174;DHT22;14031;50.158;8.626;2023-04-08T13:54:23;15.10;99.90
16174;DHT22;14031;50.158;8.626;2023-04-08T13:56:49;15.10;99.90
16174;DHT22;14031;50.158;8.626;2023-04-08T13:59:16;15.10;99.90
16174;DHT22;14031;50.158;8.626;2023-04-08T14:01:44;15.10;99.90
16174;DHT22;14031;50.158;8.626;2023-04-08T14:04:11;15.00;99.90
16174;DHT22;14031;50.158;8.626;2023-04-08T14:06:38;14.90;99.90
16174;DHT22;14031;50.158;8.626;2023-04-08T14:09:05;14.90;99.90
16174;DHT22;14031;50.158;8.626;2023-04-08T14:11:31;14.90;99.90
16174;DHT22;14031;50.158;8.626;2023-04-08T14:13:58;14.80;99.90
16174;DHT22;14031;50.158;8.626;2023-04-08T14:16:25;14.80;99.90
16174;DHT22;14031;50.158;8.626;2023-04-08T14:18:55;14.70;99.90
16174;DHT22;14031;50.158;8.626;2023-04-08T14:21:22;14.70;99.90
16174;DHT22;14031;50.158;8.626;2023-04-08T14:23:49;14.60;99.90
16174;DHT22;14031;50.158;8.626;2023-04-08T14:26:17;14.60;99.90
16174;DHT22;14031;50.158;8.626;2023-04-08T14:28:43;14.50;99.90
16174;DHT22;14031;50.158;8.626;2023-04-08T14:31:12;14.50;99.90
16174;DHT22;14031;50.158;8.626;2023-04-08T14:33:38;14.40;99.90
16174;DHT22;14031;50.158;8.626;2023-04-08T14:36:07;14.40;99.90
16174;DHT22;14031;50.158;8.626;2023-04-08T14:38:34;14.40;99.90
16174;DHT22;14031;50.158;8.626;2023-04-08T14:41:01;14.40;99.90
16174;DHT22;14031;50.158;8.626;2023-04-08T14:43:28;14.40;99.90
16174;DHT22;14031;50.158;8.626;2023-04-08T14:45:55;14.50;99.90
16174;DHT22;14031;50.158;8.626;2023-04-08T14:48:22;14.40;99.90
16174;DHT22;14031;50.158;8.626;2023-04-08T14:50:50;14.40;99.90
16174;DHT22;14031;50.158;8.626;2023-04-08T14:53:18;14.50;99.90
16174;DHT22;14031;50.158;8.626;2023-04-08T14:55:45;14.50;99.90
16174;DHT22;14031;50.158;8.626;2023-04-08T14:58:12;14.60;99.90
16174;DHT22;14031;50.158;8.626;2023-04-08T15:00:38;14.60;99.90
16174;DHT22;14031;50.158;8.626;2023-04-08T15:03:08;14.60;99.90
16174;DHT22;14031;50.158;8.626;2023-04-08T15:05:36;14.60;99.90
16174;DHT22;14031;50.158;8.626;2023-04-08T15:08:03;14.70;99.90
16174;DHT22;14031;50.158;8.626;2023-04-08T15:10:31;14.70;99.90
16174;DHT22;14031;50.158;8.626;2023-04-08T15:12:58;14.80;99.90
16174;DHT22;14031;50.158;8.626;2023-04-08T15:15:25;14.80;99.90
16174;DHT22;14031;50.158;8.626;2023-04-08T15:17:52;14.80;99.90
16174;DHT22;14031;50.158;8.626;2023-04-08T15:20:18;14.80;99.90
16174;DHT22;14031;50.158;8.626;2023-04-08T15:22:45;14.80;99.90
16174;DHT22;14031;50.158;8.626;2023-04-08T15:25:12;15.20;99.90
16174;DHT22;14031;50.158;8.626;2023-04-08T15:27:41;15.80;99.90
16174;DHT22;14031;50.158;8.626;2023-04-08T15:30:08;16.70;99.90
16174;DHT22;14031;50.158;8.626;2023-04-08T15:32:35;17.10;99.90
16174;DHT22;14031;50.158;8.626;2023-04-08T15:35:02;17.20;99.90
16174;DHT22;14031;50.158;8.626;2023-04-08T15:37:29;17.10;99.90
16174;DHT22;14031;50.158;8.626;2023-04-08T15:39:56;16.80;99.90
16174;DHT22;14031;50.158;8.626;2023-04-08T15:42:23;16.50;99.90
16174;DHT22;14031;50.158;8.626;2023-04-08T15:44:51;16.20;99.90